This is the latest recevied weather packets stored in our database for station/object AE2A-13. If no packets are shown the sender has not sent any weather packets the latest 10 day(s).
| Time | Temp. | Humidity | Pressure | Rain* | Wind** | Luminosity | Snow |
|---|---|---|---|---|---|---|---|
| 1778151903 | 19.44° C | 95% | 1016.9 hPa | 0 mm | - | - | - |
| 1778148004 | 20° C | 93% | 1016.2 hPa | 0 mm | - | - | - |
| 1778142904 | 20° C | 91% | 1015.4 hPa | 0 mm | - | - | - |
| 1778142004 | 20° C | 90% | 1015.6 hPa | 0 mm | - | - | - |
| 1778138404 | 20° C | 91% | 1015.7 hPa | 0 mm | - | - | - |
| 1778136903 | 20° C | 91% | 1016.2 hPa | 0 mm | - | - | - |
| 1778134503 | 20° C | 90% | 1016.7 hPa | 0 mm | - | - | - |
| 1778132703 | 20.56° C | 88% | 1016.9 hPa | 0 mm | - | - | - |
| 1778131204 | 20.56° C | 87% | 1017.1 hPa | 0 mm | - | - | - |
| 1778125803 | 22.22° C | 83% | 1017.6 hPa | 0 mm | - | - | - |
| 1778121304 | 23.33° C | 77% | 1016.8 hPa | 0 mm | - | - | - |
| 1778118604 | 23.89° C | 74% | 1016.7 hPa | 0 mm | - | - | - |
| 1778116203 | 25° C | 71% | 1016.8 hPa | 0 mm | - | - | - |
| 1778115003 | 25.56° C | 69% | 1016.6 hPa | 0 mm | - | - | - |
| 1778112904 | 26.67° C | 67% | 1016.4 hPa | 0 mm | - | - | - |
| 1778109003 | 29.44° C | 55% | 1016.2 hPa | 0 mm | - | - | - |
| 1778107503 | 30° C | 54% | 1016.1 hPa | 0 mm | - | - | - |
| 1778106004 | 30.56° C | 54% | 1016.2 hPa | 0 mm | - | - | - |
| 1778103004 | 32.22° C | 52% | 1016.2 hPa | 0 mm | - | - | - |
| 1778101204 | 32.78° C | 51% | 1015.9 hPa | 0 mm | - | - | - |
| 1778100304 | 33.33° C | 50% | 1016.1 hPa | 0 mm | - | - | - |
| 1778099704 | 33.33° C | 49% | 1016.1 hPa | 0 mm | - | - | - |
| 1778098504 | 33.89° C | 47% | 1016 hPa | 0 mm | - | - | - |
| 1778094904 | 34.44° C | 45% | 1016.5 hPa | 0 mm | - | - | - |
| 1778092504 | 33.89° C | 47% | 1017 hPa | 0 mm | - | - | - |
* Rain latest hour (hover to see other rain measurements)
** Current wind speed in m/s (hover to see current wind gust speed)